sensor_id;sensor_type;location;lat;lon;timestamp;P1;durP1;ratioP1;P2;durP2;ratioP2
56419;SDS011;42323;52.170;7.538;2022-10-16T00:00:52;7.78;;;4.65;;
56419;SDS011;42323;52.170;7.538;2022-10-16T00:03:22;8.63;;;4.15;;
56419;SDS011;42323;52.170;7.538;2022-10-16T00:06:09;9.70;;;4.03;;
56419;SDS011;42323;52.170;7.538;2022-10-16T00:08:37;5.55;;;3.75;;
56419;SDS011;42323;52.170;7.538;2022-10-16T00:11:26;5.70;;;3.58;;
56419;SDS011;42323;52.170;7.538;2022-10-16T00:13:59;7.57;;;4.28;;
56419;SDS011;42323;52.170;7.538;2022-10-16T00:16:57;6.93;;;4.28;;
56419;SDS011;42323;52.170;7.538;2022-10-16T00:19:24;6.45;;;4.50;;
56419;SDS011;42323;52.170;7.538;2022-10-16T00:21:57;9.10;;;4.22;;
56419;SDS011;42323;52.170;7.538;2022-10-16T00:24:37;8.57;;;4.65;;
56419;SDS011;42323;52.170;7.538;2022-10-16T00:27:12;7.72;;;4.82;;
56419;SDS011;42323;52.170;7.538;2022-10-16T00:29:42;6.78;;;3.97;;
56419;SDS011;42323;52.170;7.538;2022-10-16T00:32:20;10.33;;;4.87;;
56419;SDS011;42323;52.170;7.538;2022-10-16T00:34:47;8.45;;;4.63;;
56419;SDS011;42323;52.170;7.538;2022-10-16T00:37:14;9.57;;;5.97;;
56419;SDS011;42323;52.170;7.538;2022-10-16T00:39:42;13.10;;;5.97;;
56419;SDS011;42323;52.170;7.538;2022-10-16T00:42:15;12.75;;;6.88;;
56419;SDS011;42323;52.170;7.538;2022-10-16T00:44:49;11.10;;;6.65;;
56419;SDS011;42323;52.170;7.538;2022-10-16T00:47:24;13.40;;;7.22;;
56419;SDS011;42323;52.170;7.538;2022-10-16T00:50:00;12.40;;;6.43;;
56419;SDS011;42323;52.170;7.538;2022-10-16T00:52:52;10.68;;;6.90;;
56419;SDS011;42323;52.170;7.538;2022-10-16T00:55:23;15.38;;;8.20;;
56419;SDS011;42323;52.170;7.538;2022-10-16T00:57:53;16.83;;;7.72;;
56419;SDS011;42323;52.170;7.538;2022-10-16T01:00:29;16.20;;;8.35;;
56419;SDS011;42323;52.170;7.538;2022-10-16T01:03:38;13.63;;;8.68;;
56419;SDS011;42323;52.170;7.538;2022-10-16T01:06:23;15.25;;;8.70;;
56419;SDS011;42323;52.170;7.538;2022-10-16T01:09:17;13.43;;;8.38;;
56419;SDS011;42323;52.170;7.538;2022-10-16T01:20:26;16.73;;;10.05;;
56419;SDS011;42323;52.170;7.538;2022-10-16T01:26:15;15.77;;;9.68;;
56419;SDS011;42323;52.170;7.538;2022-10-16T01:35:18;21.55;;;10.25;;
56419;SDS011;42323;52.170;7.538;2022-10-16T01:37:53;18.23;;;10.38;;
56419;SDS011;42323;52.170;7.538;2022-10-16T01:40:44;17.48;;;10.23;;
56419;SDS011;42323;52.170;7.538;2022-10-16T01:43:16;18.92;;;10.95;;
56419;SDS011;42323;52.170;7.538;2022-10-16T01:45:46;17.67;;;10.70;;
56419;SDS011;42323;52.170;7.538;2022-10-16T01:48:20;18.92;;;10.48;;
56419;SDS011;42323;52.170;7.538;2022-10-16T01:51:12;17.67;;;10.57;;
56419;SDS011;42323;52.170;7.538;2022-10-16T01:53:48;17.73;;;11.00;;
56419;SDS011;42323;52.170;7.538;2022-10-16T01:56:22;17.35;;;10.60;;
56419;SDS011;42323;52.170;7.538;2022-10-16T01:59:19;19.73;;;10.80;;
56419;SDS011;42323;52.170;7.538;2022-10-16T02:02:03;18.88;;;10.60;;
56419;SDS011;42323;52.170;7.538;2022-10-16T02:04:49;20.73;;;11.20;;
56419;SDS011;42323;52.170;7.538;2022-10-16T02:07:38;19.27;;;10.90;;
56419;SDS011;42323;52.170;7.538;2022-10-16T02:10:21;18.73;;;10.23;;
56419;SDS011;42323;52.170;7.538;2022-10-16T02:15:53;18.98;;;10.52;;
56419;SDS011;42323;52.170;7.538;2022-10-16T02:18:23;18.38;;;10.57;;
56419;SDS011;42323;52.170;7.538;2022-10-16T02:23:57;19.27;;;11.80;;
56419;SDS011;42323;52.170;7.538;2022-10-16T02:26:43;22.55;;;11.98;;
56419;SDS011;42323;52.170;7.538;2022-10-16T02:29:43;21.42;;;10.48;;
56419;SDS011;42323;52.170;7.538;2022-10-16T02:32:28;21.17;;;11.77;;
56419;SDS011;42323;52.170;7.538;2022-10-16T02:34:58;19.75;;;10.70;;
56419;SDS011;42323;52.170;7.538;2022-10-16T02:37:35;19.05;;;10.98;;
56419;SDS011;42323;52.170;7.538;2022-10-16T02:40:30;19.35;;;10.45;;
56419;SDS011;42323;52.170;7.538;2022-10-16T02:43:04;19.17;;;11.00;;
56419;SDS011;42323;52.170;7.538;2022-10-16T02:45:35;16.92;;;10.40;;
56419;SDS011;42323;52.170;7.538;2022-10-16T02:48:06;23.73;;;11.18;;
56419;SDS011;42323;52.170;7.538;2022-10-16T02:50:39;17.17;;;10.45;;
56419;SDS011;42323;52.170;7.538;2022-10-16T02:53:14;19.00;;;10.80;;
56419;SDS011;42323;52.170;7.538;2022-10-16T02:55:44;22.77;;;11.73;;
56419;SDS011;42323;52.170;7.538;2022-10-16T02:58:25;20.30;;;11.32;;
56419;SDS011;42323;52.170;7.538;2022-10-16T03:00:58;21.98;;;10.98;;
56419;SDS011;42323;52.170;7.538;2022-10-16T03:03:36;23.23;;;11.05;;
56419;SDS011;42323;52.170;7.538;2022-10-16T03:06:39;18.40;;;10.57;;
56419;SDS011;42323;52.170;7.538;2022-10-16T03:09:17;19.00;;;10.35;;
56419;SDS011;42323;52.170;7.538;2022-10-16T03:11:44;19.08;;;11.15;;
56419;SDS011;42323;52.170;7.538;2022-10-16T03:14:15;18.17;;;11.75;;
56419;SDS011;42323;52.170;7.538;2022-10-16T03:16:42;22.65;;;11.02;;
56419;SDS011;42323;52.170;7.538;2022-10-16T03:19:20;16.52;;;10.48;;
56419;SDS011;42323;52.170;7.538;2022-10-16T03:21:50;18.08;;;9.77;;
56419;SDS011;42323;52.170;7.538;2022-10-16T03:24:37;21.20;;;11.45;;
56419;SDS011;42323;52.170;7.538;2022-10-16T03:30:10;15.88;;;9.65;;
56419;SDS011;42323;52.170;7.538;2022-10-16T03:32:51;20.38;;;10.00;;
56419;SDS011;42323;52.170;7.538;2022-10-16T03:35:21;15.63;;;9.10;;
56419;SDS011;42323;52.170;7.538;2022-10-16T03:37:50;16.98;;;9.68;;
56419;SDS011;42323;52.170;7.538;2022-10-16T03:40:24;15.50;;;9.38;;
56419;SDS011;42323;52.170;7.538;2022-10-16T03:42:52;16.35;;;9.93;;
56419;SDS011;42323;52.170;7.538;2022-10-16T03:45:37;17.90;;;9.40;;
56419;SDS011;42323;52.170;7.538;2022-10-16T03:48:10;22.05;;;9.65;;
56419;SDS011;42323;52.170;7.538;2022-10-16T03:50:40;15.05;;;9.30;;
56419;SDS011;42323;52.170;7.538;2022-10-16T03:53:12;17.10;;;9.57;;
56419;SDS011;42323;52.170;7.538;2022-10-16T03:55:48;18.95;;;9.63;;
56419;SDS011;42323;52.170;7.538;2022-10-16T03:58:22;14.13;;;8.35;;
56419;SDS011;42323;52.170;7.538;2022-10-16T04:01:18;13.63;;;8.98;;
56419;SDS011;42323;52.170;7.538;2022-10-16T04:03:45;16.02;;;8.85;;
56419;SDS011;42323;52.170;7.538;2022-10-16T04:06:15;16.85;;;9.00;;
56419;SDS011;42323;52.170;7.538;2022-10-16T04:08:50;15.43;;;9.35;;
56419;SDS011;42323;52.170;7.538;2022-10-16T04:11:34;16.48;;;8.65;;
56419;SDS011;42323;52.170;7.538;2022-10-16T04:14:08;14.43;;;8.48;;
56419;SDS011;42323;52.170;7.538;2022-10-16T04:16:36;15.20;;;8.48;;
56419;SDS011;42323;52.170;7.538;2022-10-16T04:19:25;14.70;;;8.48;;
56419;SDS011;42323;52.170;7.538;2022-10-16T04:22:13;14.00;;;8.05;;
56419;SDS011;42323;52.170;7.538;2022-10-16T04:24:43;14.70;;;8.68;;
56419;SDS011;42323;52.170;7.538;2022-10-16T04:27:29;14.18;;;7.65;;
56419;SDS011;42323;52.170;7.538;2022-10-16T04:29:59;18.95;;;8.93;;
56419;SDS011;42323;52.170;7.538;2022-10-16T04:32:40;15.60;;;8.45;;
56419;SDS011;42323;52.170;7.538;2022-10-16T04:35:08;13.48;;;7.88;;
56419;SDS011;42323;52.170;7.538;2022-10-16T04:37:38;13.75;;;7.88;;
56419;SDS011;42323;52.170;7.538;2022-10-16T04:40:23;17.27;;;7.97;;
56419;SDS011;42323;52.170;7.538;2022-10-16T04:42:54;13.15;;;7.55;;
56419;SDS011;42323;52.170;7.538;2022-10-16T04:45:26;11.43;;;6.88;;
56419;SDS011;42323;52.170;7.538;2022-10-16T04:47:56;12.35;;;7.25;;
56419;SDS011;42323;52.170;7.538;2022-10-16T04:50:28;13.30;;;7.57;;
56419;SDS011;42323;52.170;7.538;2022-10-16T04:52:57;11.52;;;7.70;;
56419;SDS011;42323;52.170;7.538;2022-10-16T04:55:29;12.40;;;6.82;;
56419;SDS011;42323;52.170;7.538;2022-10-16T04:57:59;13.07;;;7.13;;
56419;SDS011;42323;52.170;7.538;2022-10-16T05:00:27;13.95;;;7.22;;
56419;SDS011;42323;52.170;7.538;2022-10-16T05:03:02;15.32;;;7.28;;
56419;SDS011;42323;52.170;7.538;2022-10-16T05:05:42;11.07;;;6.85;;
56419;SDS011;42323;52.170;7.538;2022-10-16T05:10:48;10.50;;;6.18;;
56419;SDS011;42323;52.170;7.538;2022-10-16T05:13:19;8.57;;;5.90;;
56419;SDS011;42323;52.170;7.538;2022-10-16T05:15:46;12.65;;;6.05;;
56419;SDS011;42323;52.170;7.538;2022-10-16T05:18:20;10.18;;;6.00;;
56419;SDS011;42323;52.170;7.538;2022-10-16T05:20:54;9.73;;;6.05;;
56419;SDS011;42323;52.170;7.538;2022-10-16T05:23:23;19.05;;;6.95;;
56419;SDS011;42323;52.170;7.538;2022-10-16T05:25:53;9.93;;;6.28;;
56419;SDS011;42323;52.170;7.538;2022-10-16T05:28:21;9.52;;;5.60;;
56419;SDS011;42323;52.170;7.538;2022-10-16T05:30:56;10.07;;;5.50;;
56419;SDS011;42323;52.170;7.538;2022-10-16T05:33:27;10.63;;;5.30;;
56419;SDS011;42323;52.170;7.538;2022-10-16T05:35:54;8.35;;;5.47;;
56419;SDS011;42323;52.170;7.538;2022-10-16T05:38:21;8.32;;;5.20;;
56419;SDS011;42323;52.170;7.538;2022-10-16T05:40:51;10.45;;;5.32;;
56419;SDS011;42323;52.170;7.538;2022-10-16T05:43:22;9.48;;;5.28;;
56419;SDS011;42323;52.170;7.538;2022-10-16T05:45:53;9.18;;;5.30;;
56419;SDS011;42323;52.170;7.538;2022-10-16T05:48:27;9.10;;;4.63;;
56419;SDS011;42323;52.170;7.538;2022-10-16T05:51:04;7.15;;;4.75;;
56419;SDS011;42323;52.170;7.538;2022-10-16T05:53:39;8.57;;;4.97;;
56419;SDS011;42323;52.170;7.538;2022-10-16T05:56:11;7.18;;;4.85;;
56419;SDS011;42323;52.170;7.538;2022-10-16T05:58:45;8.40;;;4.68;;
56419;SDS011;42323;52.170;7.538;2022-10-16T06:04:07;8.95;;;4.55;;
56419;SDS011;42323;52.170;7.538;2022-10-16T06:06:41;8.88;;;5.05;;
56419;SDS011;42323;52.170;7.538;2022-10-16T06:09:27;11.52;;;5.35;;
56419;SDS011;42323;52.170;7.538;2022-10-16T06:12:17;7.93;;;5.35;;
56419;SDS011;42323;52.170;7.538;2022-10-16T06:14:59;8.93;;;6.03;;
56419;SDS011;42323;52.170;7.538;2022-10-16T06:17:29;7.28;;;4.55;;
56419;SDS011;42323;52.170;7.538;2022-10-16T06:19:57;7.40;;;4.70;;
56419;SDS011;42323;52.170;7.538;2022-10-16T06:22:32;9.75;;;5.10;;
56419;SDS011;42323;52.170;7.538;2022-10-16T06:25:00;9.88;;;5.38;;
56419;SDS011;42323;52.170;7.538;2022-10-16T06:27:44;7.60;;;5.28;;
56419;SDS011;42323;52.170;7.538;2022-10-16T06:30:12;12.38;;;5.50;;
56419;SDS011;42323;52.170;7.538;2022-10-16T06:32:43;8.73;;;5.30;;
56419;SDS011;42323;52.170;7.538;2022-10-16T06:35:13;7.20;;;5.05;;
56419;SDS011;42323;52.170;7.538;2022-10-16T06:37:55;6.85;;;4.32;;
56419;SDS011;42323;52.170;7.538;2022-10-16T06:40:33;6.70;;;4.60;;
56419;SDS011;42323;52.170;7.538;2022-10-16T06:43:01;6.47;;;4.75;;
56419;SDS011;42323;52.170;7.538;2022-10-16T06:45:37;6.50;;;4.05;;
56419;SDS011;42323;52.170;7.538;2022-10-16T06:48:13;6.18;;;4.32;;
56419;SDS011;42323;52.170;7.538;2022-10-16T06:50:41;6.47;;;4.30;;
56419;SDS011;42323;52.170;7.538;2022-10-16T06:53:10;6.65;;;4.13;;
56419;SDS011;42323;52.170;7.538;2022-10-16T06:55:38;6.65;;;3.85;;
56419;SDS011;42323;52.170;7.538;2022-10-16T06:58:08;8.30;;;4.22;;
56419;SDS011;42323;52.170;7.538;2022-10-16T07:00:45;5.90;;;4.25;;
56419;SDS011;42323;52.170;7.538;2022-10-16T07:03:13;6.55;;;3.75;;
56419;SDS011;42323;52.170;7.538;2022-10-16T07:05:54;4.30;;;3.33;;
56419;SDS011;42323;52.170;7.538;2022-10-16T07:08:37;7.63;;;3.63;;
56419;SDS011;42323;52.170;7.538;2022-10-16T07:11:07;8.73;;;4.22;;
56419;SDS011;42323;52.170;7.538;2022-10-16T07:13:36;6.03;;;3.40;;
56419;SDS011;42323;52.170;7.538;2022-10-16T07:16:08;6.40;;;3.30;;
56419;SDS011;42323;52.170;7.538;2022-10-16T07:18:38;3.97;;;2.78;;
56419;SDS011;42323;52.170;7.538;2022-10-16T07:21:10;7.13;;;2.90;;
56419;SDS011;42323;52.170;7.538;2022-10-16T07:23:58;5.40;;;3.40;;
56419;SDS011;42323;52.170;7.538;2022-10-16T07:26:28;3.78;;;2.47;;
56419;SDS011;42323;52.170;7.538;2022-10-16T07:28:57;6.10;;;3.33;;
56419;SDS011;42323;52.170;7.538;2022-10-16T07:31:24;5.90;;;3.50;;
56419;SDS011;42323;52.170;7.538;2022-10-16T07:33:52;5.38;;;2.70;;
56419;SDS011;42323;52.170;7.538;2022-10-16T07:36:20;7.13;;;2.88;;
56419;SDS011;42323;52.170;7.538;2022-10-16T07:38:48;3.40;;;2.83;;
56419;SDS011;42323;52.170;7.538;2022-10-16T07:41:24;4.35;;;2.95;;
56419;SDS011;42323;52.170;7.538;2022-10-16T07:43:53;6.07;;;2.65;;
56419;SDS011;42323;52.170;7.538;2022-10-16T07:46:22;5.63;;;2.80;;
56419;SDS011;42323;52.170;7.538;2022-10-16T07:48:50;4.13;;;2.75;;
56419;SDS011;42323;52.170;7.538;2022-10-16T07:51:18;4.53;;;2.67;;
56419;SDS011;42323;52.170;7.538;2022-10-16T07:53:47;5.32;;;3.17;;
56419;SDS011;42323;52.170;7.538;2022-10-16T07:56:21;4.25;;;2.92;;
56419;SDS011;42323;52.170;7.538;2022-10-16T07:58:52;4.78;;;2.53;;
56419;SDS011;42323;52.170;7.538;2022-10-16T08:01:19;4.38;;;2.38;;
56419;SDS011;42323;52.170;7.538;2022-10-16T08:03:47;3.70;;;2.20;;
56419;SDS011;42323;52.170;7.538;2022-10-16T08:06:16;5.40;;;2.17;;
56419;SDS011;42323;52.170;7.538;2022-10-16T08:08:54;3.03;;;2.08;;
56419;SDS011;42323;52.170;7.538;2022-10-16T08:11:22;4.55;;;3.10;;
56419;SDS011;42323;52.170;7.538;2022-10-16T08:13:52;2.72;;;2.00;;
56419;SDS011;42323;52.170;7.538;2022-10-16T08:16:20;4.57;;;2.63;;
56419;SDS011;42323;52.170;7.538;2022-10-16T08:18:51;3.90;;;2.38;;
56419;SDS011;42323;52.170;7.538;2022-10-16T08:21:19;4.13;;;2.50;;
56419;SDS011;42323;52.170;7.538;2022-10-16T08:23:47;3.85;;;2.20;;
56419;SDS011;42323;52.170;7.538;2022-10-16T08:26:22;5.20;;;2.30;;
56419;SDS011;42323;52.170;7.538;2022-10-16T08:28:49;5.40;;;2.55;;
56419;SDS011;42323;52.170;7.538;2022-10-16T08:31:17;8.52;;;2.40;;
56419;SDS011;42323;52.170;7.538;2022-10-16T08:33:46;4.90;;;2.25;;
56419;SDS011;42323;52.170;7.538;2022-10-16T08:36:14;4.55;;;2.22;;
56419;SDS011;42323;52.170;7.538;2022-10-16T08:38:42;7.90;;;2.58;;
56419;SDS011;42323;52.170;7.538;2022-10-16T08:44:04;3.53;;;2.40;;
56419;SDS011;42323;52.170;7.538;2022-10-16T08:46:51;4.05;;;1.80;;
56419;SDS011;42323;52.170;7.538;2022-10-16T08:49:27;2.58;;;1.80;;
56419;SDS011;42323;52.170;7.538;2022-10-16T08:51:54;2.90;;;1.85;;
56419;SDS011;42323;52.170;7.538;2022-10-16T08:57:50;3.90;;;2.00;;
56419;SDS011;42323;52.170;7.538;2022-10-16T09:00:12;3.80;;;1.88;;
56419;SDS011;42323;52.170;7.538;2022-10-16T09:02:52;3.63;;;1.80;;
56419;SDS011;42323;52.170;7.538;2022-10-16T09:12:08;3.50;;;1.52;;
56419;SDS011;42323;52.170;7.538;2022-10-16T09:14:53;1.92;;;1.42;;
56419;SDS011;42323;52.170;7.538;2022-10-16T09:22:28;2.90;;;1.50;;
56419;SDS011;42323;52.170;7.538;2022-10-16T09:25:01;4.55;;;1.83;;
56419;SDS011;42323;52.170;7.538;2022-10-16T09:27:37;5.60;;;1.60;;
56419;SDS011;42323;52.170;7.538;2022-10-16T09:30:11;1.85;;;1.20;;
56419;SDS011;42323;52.170;7.538;2022-10-16T09:32:43;6.05;;;1.30;;
56419;SDS011;42323;52.170;7.538;2022-10-16T09:35:22;2.58;;;1.20;;
56419;SDS011;42323;52.170;7.538;2022-10-16T09:37:57;2.23;;;1.17;;
56419;SDS011;42323;52.170;7.538;2022-10-16T09:40:34;4.20;;;1.33;;
56419;SDS011;42323;52.170;7.538;2022-10-16T09:43:14;5.20;;;1.50;;
56419;SDS011;42323;52.170;7.538;2022-10-16T09:45:57;2.58;;;1.30;;
56419;SDS011;42323;52.170;7.538;2022-10-16T09:48:28;3.30;;;1.25;;
56419;SDS011;42323;52.170;7.538;2022-10-16T09:51:16;2.50;;;1.30;;
56419;SDS011;42323;52.170;7.538;2022-10-16T09:53:46;3.35;;;1.38;;
56419;SDS011;42323;52.170;7.538;2022-10-16T09:59:13;4.65;;;1.55;;
56419;SDS011;42323;52.170;7.538;2022-10-16T10:01:51;2.08;;;1.55;;
56419;SDS011;42323;52.170;7.538;2022-10-16T10:04:22;3.40;;;1.10;;
56419;SDS011;42323;52.170;7.538;2022-10-16T10:06:53;4.38;;;1.30;;
56419;SDS011;42323;52.170;7.538;2022-10-16T10:38:27;3.80;;;1.85;;
56419;SDS011;42323;52.170;7.538;2022-10-16T10:41:10;3.55;;;2.00;;
56419;SDS011;42323;52.170;7.538;2022-10-16T10:43:55;5.03;;;2.42;;
56419;SDS011;42323;52.170;7.538;2022-10-16T10:46:45;3.35;;;1.75;;
56419;SDS011;42323;52.170;7.538;2022-10-16T11:05:56;4.35;;;2.22;;
56419;SDS011;42323;52.170;7.538;2022-10-16T11:08:41;4.32;;;2.33;;
56419;SDS011;42323;52.170;7.538;2022-10-16T11:11:15;7.60;;;2.47;;
56419;SDS011;42323;52.170;7.538;2022-10-16T11:30:38;3.80;;;2.13;;
56419;SDS011;42323;52.170;7.538;2022-10-16T11:38:15;7.63;;;1.75;;
56419;SDS011;42323;52.170;7.538;2022-10-16T11:40:48;2.33;;;1.35;;
56419;SDS011;42323;52.170;7.538;2022-10-16T11:46:21;3.15;;;1.90;;
56419;SDS011;42323;52.170;7.538;2022-10-16T11:52:31;9.50;;;2.53;;
56419;SDS011;42323;52.170;7.538;2022-10-16T11:54:47;6.07;;;1.48;;
56419;SDS011;42323;52.170;7.538;2022-10-16T11:59:55;3.92;;;1.80;;
56419;SDS011;42323;52.170;7.538;2022-10-16T12:02:35;2.97;;;1.40;;
56419;SDS011;42323;52.170;7.538;2022-10-16T12:08:11;4.22;;;1.30;;
56419;SDS011;42323;52.170;7.538;2022-10-16T12:10:40;6.00;;;1.70;;
56419;SDS011;42323;52.170;7.538;2022-10-16T12:19:12;3.28;;;1.50;;
56419;SDS011;42323;52.170;7.538;2022-10-16T12:21:42;4.00;;;1.20;;
56419;SDS011;42323;52.170;7.538;2022-10-16T12:27:28;4.05;;;1.17;;
56419;SDS011;42323;52.170;7.538;2022-10-16T12:29:57;6.57;;;1.23;;
56419;SDS011;42323;52.170;7.538;2022-10-16T12:32:33;2.35;;;1.10;;
56419;SDS011;42323;52.170;7.538;2022-10-16T12:35:18;3.45;;;1.20;;
56419;SDS011;42323;52.170;7.538;2022-10-16T12:37:48;3.97;;;1.33;;
56419;SDS011;42323;52.170;7.538;2022-10-16T12:40:37;3.47;;;1.02;;
56419;SDS011;42323;52.170;7.538;2022-10-16T12:43:39;4.47;;;1.30;;
56419;SDS011;42323;52.170;7.538;2022-10-16T12:48:31;3.42;;;1.15;;
56419;SDS011;42323;52.170;7.538;2022-10-16T12:51:33;2.90;;;1.30;;
56419;SDS011;42323;52.170;7.538;2022-10-16T12:59:20;3.25;;;1.13;;
56419;SDS011;42323;52.170;7.538;2022-10-16T13:05:00;3.90;;;0.98;;
56419;SDS011;42323;52.170;7.538;2022-10-16T13:18:29;3.38;;;1.10;;
56419;SDS011;42323;52.170;7.538;2022-10-16T13:21:28;5.70;;;1.10;;
56419;SDS011;42323;52.170;7.538;2022-10-16T13:24:39;4.97;;;1.40;;
56419;SDS011;42323;52.170;7.538;2022-10-16T13:32:26;4.60;;;1.10;;
56419;SDS011;42323;52.170;7.538;2022-10-16T13:34:53;3.60;;;1.08;;
56419;SDS011;42323;52.170;7.538;2022-10-16T13:37:23;4.75;;;1.13;;
56419;SDS011;42323;52.170;7.538;2022-10-16T13:39:51;3.10;;;1.10;;
56419;SDS011;42323;52.170;7.538;2022-10-16T13:42:28;5.30;;;1.13;;
56419;SDS011;42323;52.170;7.538;2022-10-16T13:44:55;3.42;;;1.40;;
56419;SDS011;42323;52.170;7.538;2022-10-16T13:47:24;4.03;;;1.00;;
56419;SDS011;42323;52.170;7.538;2022-10-16T13:50:12;3.67;;;1.15;;
56419;SDS011;42323;52.170;7.538;2022-10-16T13:52:40;6.82;;;1.17;;
56419;SDS011;42323;52.170;7.538;2022-10-16T13:55:11;3.15;;;0.80;;
56419;SDS011;42323;52.170;7.538;2022-10-16T13:57:40;4.00;;;1.17;;
56419;SDS011;42323;52.170;7.538;2022-10-16T14:00:20;4.97;;;0.85;;
56419;SDS011;42323;52.170;7.538;2022-10-16T14:02:51;6.22;;;1.00;;
56419;SDS011;42323;52.170;7.538;2022-10-16T14:05:22;3.00;;;1.02;;
56419;SDS011;42323;52.170;7.538;2022-10-16T14:07:50;3.28;;;1.08;;
56419;SDS011;42323;52.170;7.538;2022-10-16T14:10:20;3.72;;;0.80;;
56419;SDS011;42323;52.170;7.538;2022-10-16T14:13:02;2.90;;;0.80;;
56419;SDS011;42323;52.170;7.538;2022-10-16T14:15:32;2.40;;;1.13;;
56419;SDS011;42323;52.170;7.538;2022-10-16T14:18:00;5.45;;;1.00;;
56419;SDS011;42323;52.170;7.538;2022-10-16T14:20:30;2.33;;;0.90;;
56419;SDS011;42323;52.170;7.538;2022-10-16T14:25:36;2.58;;;0.93;;
56419;SDS011;42323;52.170;7.538;2022-10-16T14:28:04;3.00;;;1.05;;
56419;SDS011;42323;52.170;7.538;2022-10-16T14:33:50;3.25;;;1.20;;
56419;SDS011;42323;52.170;7.538;2022-10-16T14:36:17;4.05;;;1.13;;
56419;SDS011;42323;52.170;7.538;2022-10-16T14:39:04;4.47;;;1.10;;
56419;SDS011;42323;52.170;7.538;2022-10-16T14:41:41;3.20;;;1.00;;
56419;SDS011;42323;52.170;7.538;2022-10-16T14:44:11;4.28;;;1.10;;
56419;SDS011;42323;52.170;7.538;2022-10-16T14:46:40;3.35;;;0.95;;
56419;SDS011;42323;52.170;7.538;2022-10-16T14:51:36;3.75;;;0.90;;
56419;SDS011;42323;52.170;7.538;2022-10-16T14:54:04;4.38;;;1.00;;
56419;SDS011;42323;52.170;7.538;2022-10-16T14:56:40;4.97;;;1.08;;
56419;SDS011;42323;52.170;7.538;2022-10-16T14:59:13;2.83;;;1.20;;
56419;SDS011;42323;52.170;7.538;2022-10-16T15:01:44;2.95;;;0.95;;
56419;SDS011;42323;52.170;7.538;2022-10-16T15:04:12;4.05;;;1.20;;
56419;SDS011;42323;52.170;7.538;2022-10-16T15:06:40;4.72;;;1.10;;
56419;SDS011;42323;52.170;7.538;2022-10-16T15:09:07;6.60;;;1.23;;
56419;SDS011;42323;52.170;7.538;2022-10-16T15:11:34;1.77;;;0.95;;
56419;SDS011;42323;52.170;7.538;2022-10-16T15:14:02;5.18;;;1.23;;
56419;SDS011;42323;52.170;7.538;2022-10-16T15:16:30;4.28;;;0.98;;
56419;SDS011;42323;52.170;7.538;2022-10-16T15:18:57;5.03;;;1.00;;
56419;SDS011;42323;52.170;7.538;2022-10-16T15:21:25;3.47;;;1.20;;
56419;SDS011;42323;52.170;7.538;2022-10-16T15:23:57;3.20;;;0.90;;
56419;SDS011;42323;52.170;7.538;2022-10-16T15:26:25;4.57;;;1.60;;
56419;SDS011;42323;52.170;7.538;2022-10-16T15:28:53;4.82;;;1.50;;
56419;SDS011;42323;52.170;7.538;2022-10-16T15:31:20;4.00;;;1.40;;
56419;SDS011;42323;52.170;7.538;2022-10-16T15:33:51;8.75;;;1.65;;
56419;SDS011;42323;52.170;7.538;2022-10-16T15:36:28;3.13;;;1.23;;
56419;SDS011;42323;52.170;7.538;2022-10-16T15:38:55;3.72;;;1.50;;
56419;SDS011;42323;52.170;7.538;2022-10-16T15:41:22;6.85;;;2.03;;
56419;SDS011;42323;52.170;7.538;2022-10-16T15:43:49;4.25;;;1.40;;
56419;SDS011;42323;52.170;7.538;2022-10-16T15:46:20;4.10;;;1.48;;
56419;SDS011;42323;52.170;7.538;2022-10-16T15:48:51;4.55;;;1.67;;
56419;SDS011;42323;52.170;7.538;2022-10-16T15:51:23;3.80;;;1.55;;
56419;SDS011;42323;52.170;7.538;2022-10-16T15:53:50;2.75;;;1.23;;
56419;SDS011;42323;52.170;7.538;2022-10-16T15:56:17;6.22;;;1.63;;
56419;SDS011;42323;52.170;7.538;2022-10-16T15:58:44;5.13;;;1.48;;
56419;SDS011;42323;52.170;7.538;2022-10-16T16:01:10;6.80;;;1.92;;
56419;SDS011;42323;52.170;7.538;2022-10-16T16:03:38;10.88;;;5.43;;
56419;SDS011;42323;52.170;7.538;2022-10-16T16:06:09;11.65;;;4.72;;
56419;SDS011;42323;52.170;7.538;2022-10-16T16:08:37;7.93;;;2.92;;
56419;SDS011;42323;52.170;7.538;2022-10-16T16:11:05;3.78;;;2.00;;
56419;SDS011;42323;52.170;7.538;2022-10-16T16:13:34;6.03;;;2.22;;
56419;SDS011;42323;52.170;7.538;2022-10-16T16:16:06;2.78;;;1.60;;
56419;SDS011;42323;52.170;7.538;2022-10-16T16:18:38;5.95;;;1.80;;
56419;SDS011;42323;52.170;7.538;2022-10-16T16:21:05;6.30;;;2.08;;
56419;SDS011;42323;52.170;7.538;2022-10-16T16:23:32;8.02;;;1.95;;
56419;SDS011;42323;52.170;7.538;2022-10-16T16:28:32;4.22;;;2.03;;
56419;SDS011;42323;52.170;7.538;2022-10-16T16:30:58;5.13;;;2.03;;
56419;SDS011;42323;52.170;7.538;2022-10-16T16:33:25;5.68;;;2.20;;
56419;SDS011;42323;52.170;7.538;2022-10-16T16:35:55;6.85;;;3.20;;
56419;SDS011;42323;52.170;7.538;2022-10-16T16:38:23;8.80;;;3.78;;
56419;SDS011;42323;52.170;7.538;2022-10-16T16:40:50;9.35;;;3.95;;
56419;SDS011;42323;52.170;7.538;2022-10-16T16:43:25;8.65;;;3.83;;
56419;SDS011;42323;52.170;7.538;2022-10-16T16:45:52;9.05;;;3.80;;
56419;SDS011;42323;52.170;7.538;2022-10-16T16:48:20;9.07;;;4.53;;
56419;SDS011;42323;52.170;7.538;2022-10-16T16:50:48;12.18;;;6.75;;
56419;SDS011;42323;52.170;7.538;2022-10-16T16:53:14;16.13;;;7.32;;
56419;SDS011;42323;52.170;7.538;2022-10-16T16:55:41;18.85;;;7.82;;
56419;SDS011;42323;52.170;7.538;2022-10-16T16:58:08;15.40;;;6.05;;
56419;SDS011;42323;52.170;7.538;2022-10-16T17:00:35;15.88;;;6.75;;
56419;SDS011;42323;52.170;7.538;2022-10-16T17:03:02;21.13;;;6.95;;
56419;SDS011;42323;52.170;7.538;2022-10-16T17:05:29;18.40;;;7.40;;
56419;SDS011;42323;52.170;7.538;2022-10-16T17:07:56;14.95;;;6.68;;
56419;SDS011;42323;52.170;7.538;2022-10-16T17:10:22;14.15;;;7.10;;
56419;SDS011;42323;52.170;7.538;2022-10-16T17:12:49;17.45;;;7.35;;
56419;SDS011;42323;52.170;7.538;2022-10-16T17:15:16;17.80;;;8.20;;
56419;SDS011;42323;52.170;7.538;2022-10-16T17:17:43;14.02;;;7.53;;
56419;SDS011;42323;52.170;7.538;2022-10-16T17:20:10;9.88;;;5.85;;
56419;SDS011;42323;52.170;7.538;2022-10-16T17:22:37;10.52;;;5.78;;
56419;SDS011;42323;52.170;7.538;2022-10-16T17:25:04;10.38;;;6.68;;
56419;SDS011;42323;52.170;7.538;2022-10-16T17:27:33;11.10;;;6.60;;
56419;SDS011;42323;52.170;7.538;2022-10-16T17:30:02;8.50;;;5.78;;
56419;SDS011;42323;52.170;7.538;2022-10-16T17:32:29;11.70;;;7.13;;
56419;SDS011;42323;52.170;7.538;2022-10-16T17:34:56;11.93;;;6.88;;
56419;SDS011;42323;52.170;7.538;2022-10-16T17:37:23;13.82;;;6.95;;
56419;SDS011;42323;52.170;7.538;2022-10-16T17:39:50;14.30;;;8.27;;
56419;SDS011;42323;52.170;7.538;2022-10-16T17:42:17;24.42;;;14.35;;
56419;SDS011;42323;52.170;7.538;2022-10-16T17:44:44;20.38;;;12.02;;
56419;SDS011;42323;52.170;7.538;2022-10-16T17:47:11;20.60;;;11.73;;
56419;SDS011;42323;52.170;7.538;2022-10-16T17:49:38;18.40;;;10.90;;
56419;SDS011;42323;52.170;7.538;2022-10-16T17:52:05;20.00;;;10.55;;
56419;SDS011;42323;52.170;7.538;2022-10-16T17:54:31;16.95;;;9.30;;
56419;SDS011;42323;52.170;7.538;2022-10-16T17:56:58;21.85;;;11.57;;
56419;SDS011;42323;52.170;7.538;2022-10-16T17:59:25;19.88;;;10.25;;
56419;SDS011;42323;52.170;7.538;2022-10-16T18:01:53;19.83;;;11.05;;
56419;SDS011;42323;52.170;7.538;2022-10-16T18:04:20;17.58;;;10.43;;
56419;SDS011;42323;52.170;7.538;2022-10-16T18:06:46;18.80;;;9.93;;
56419;SDS011;42323;52.170;7.538;2022-10-16T18:09:17;15.45;;;9.07;;
56419;SDS011;42323;52.170;7.538;2022-10-16T18:11:44;16.40;;;8.98;;
56419;SDS011;42323;52.170;7.538;2022-10-16T18:14:12;11.20;;;7.22;;
56419;SDS011;42323;52.170;7.538;2022-10-16T18:16:41;12.93;;;7.30;;